Time;durP1;ratioP1;P1;durP2;ratioP2;P2;SDS_P1;SDS_P2;PMS_P1;PMS_P2;Temp;Humidity;BMP_temperature;BMP_pressure;BME280_temperature;BME280_humidity;BME280_pressure;Samples;Min_cycle;Max_cycle;Signal;HPM_P1;HPM_P2
2020/12/02 00:01:10;;;;;;;;;;;;;;;0.11;81.50;100797.91;5022610;28;20344;-67
2020/12/02 00:03:40;;;;;;;;;;;;;;;0.06;82.05;100804.66;5025185;28;20411;-69
2020/12/02 00:06:07;;;;;;;;;;;;;;;-0.12;82.22;100802.59;5018417;28;19930;-69
2020/12/02 00:08:35;;;;;;;;;;;;;;;-0.15;82.93;100802.03;5012111;28;20387;-68
2020/12/02 00:11:02;;;;;;;;;;;;;;;-0.30;83.53;100806.84;5011530;28;19925;-69
2020/12/02 00:13:33;;;;;;;;;;;;;;;-0.39;83.79;100805.00;5018268;28;19925;-68
2020/12/02 00:15:59;;;;;;;;;;;;;;;-0.36;84.59;100810.94;5012873;28;19926;-69
2020/12/02 00:18:26;;;;;;;;;;;;;;;-0.60;84.85;100804.13;5012598;28;19975;-69
2020/12/02 00:20:52;;;;;;;;;;;;;;;-0.48;85.32;100803.09;5008023;28;19929;-69
2020/12/02 00:23:19;;;;;;;;;;;;;;;-0.44;84.40;100807.22;5022217;28;19933;-69
2020/12/02 00:25:46;;;;;;;;;;;;;;;-0.53;85.14;100807.97;5017594;28;20387;-69
2020/12/02 00:28:12;;;;;;;;;;;;;;;-0.56;84.73;100808.25;5017252;28;19979;-69
2020/12/02 00:30:39;;;;;;;;;;;;;;;-0.58;85.49;100815.53;5003963;28;19936;-69
2020/12/02 00:33:11;;;;;;;;;;;;;;;-0.71;85.37;100813.06;5017903;28;19980;-69
2020/12/02 00:35:38;;;;;;;;;;;;;;;-0.72;85.38;100806.88;5011767;28;19925;-69
2020/12/02 00:38:05;;;;;;;;;;;;;;;-0.72;86.02;100814.91;5009792;28;20387;-69
2020/12/02 00:40:32;;;;;;;;;;;;;;;-0.91;86.32;100812.06;4997235;28;19972;-68
2020/12/02 00:42:58;;;;;;;;;;;;;;;-1.01;87.47;100824.47;4998772;28;20482;-68
2020/12/02 00:45:24;;;;;;;;;;;;;;;-1.14;87.50;100819.31;5004014;28;19925;-69
2020/12/02 00:47:51;;;;;;;;;;;;;;;-1.09;87.47;100816.25;5011507;28;19930;-68
2020/12/02 00:50:19;;;;;;;;;;;;;;;-1.19;87.49;100826.00;5005211;28;19936;-67
2020/12/02 00:53:04;;;;;;;;;;;;;;;-1.25;88.20;100826.50;5002862;28;20342;-68
2020/12/02 00:55:31;;;;;;;;;;;;;;;-1.09;87.71;100813.59;4992112;28;19948;-68
2020/12/02 00:57:57;;;;;;;;;;;;;;;-1.15;87.53;100819.44;5013875;28;19935;-69
2020/12/02 01:00:25;;;;;;;;;;;;;;;-1.17;87.46;100816.03;4994620;28;19936;-69
2020/12/02 01:02:57;;;;;;;;;;;;;;;-1.22;87.87;100816.41;5021873;28;20449;-69
2020/12/02 01:05:24;;;;;;;;;;;;;;;-1.26;87.52;100814.97;5023227;28;19971;-69
2020/12/02 01:07:50;;;;;;;;;;;;;;;-1.32;87.56;100823.47;5017973;28;19948;-68
2020/12/02 01:10:16;;;;;;;;;;;;;;;-1.35;87.80;100837.09;5013263;28;19926;-69
2020/12/02 01:12:43;;;;;;;;;;;;;;;-1.33;88.06;100829.78;5023799;28;19972;-68
2020/12/02 01:15:09;;;;;;;;;;;;;;;-1.39;87.91;100831.13;5006556;28;19926;-69
2020/12/02 01:17:36;;;;;;;;;;;;;;;-1.46;87.71;100835.31;5021040;28;20307;-69
2020/12/02 01:20:09;;;;;;;;;;;;;;;-1.41;88.14;100838.47;4981381;28;19933;-68
2020/12/02 01:22:39;;;;;;;;;;;;;;;-1.50;87.57;100825.84;5011423;28;20360;-68
2020/12/02 01:25:16;;;;;;;;;;;;;;;-1.51;87.49;100832.16;5007090;28;19936;-68
2020/12/02 01:27:52;;;;;;;;;;;;;;;-1.58;87.88;100830.94;5007133;28;19932;-69
2020/12/02 01:30:18;;;;;;;;;;;;;;;-1.61;88.49;100828.50;5019921;28;19948;-68
2020/12/02 01:32:44;;;;;;;;;;;;;;;-1.65;88.43;100832.41;4999071;28;20365;-68
2020/12/02 01:35:11;;;;;;;;;;;;;;;-1.50;87.97;100825.84;5014943;28;19934;-68
2020/12/02 01:37:41;;;;;;;;;;;;;;;-1.42;87.51;100822.56;5008412;28;20024;-68
2020/12/02 01:40:15;;;;;;;;;;;;;;;-1.37;86.77;100834.53;5011034;28;19957;-69
2020/12/02 01:42:43;;;;;;;;;;;;;;;-1.45;86.83;100834.34;5022431;28;19925;-69
2020/12/02 01:45:12;;;;;;;;;;;;;;;-1.60;87.29;100834.72;5021542;28;20148;-69
2020/12/02 01:47:42;;;;;;;;;;;;;;;-1.68;87.38;100835.31;5002838;28;19932;-68
2020/12/02 01:50:27;;;;;;;;;;;;;;;-1.53;87.83;100826.06;4969840;28;20024;-68
2020/12/02 01:53:12;;;;;;;;;;;;;;;-1.62;87.70;100829.47;5009905;28;19930;-68
2020/12/02 01:55:41;;;;;;;;;;;;;;;-1.61;87.71;100836.53;5003469;28;19929;-68
2020/12/02 01:58:10;;;;;;;;;;;;;;;-1.59;87.07;100831.91;5019272;28;20027;-68
2020/12/02 02:00:36;;;;;;;;;;;;;;;-1.54;87.49;100824.38;5007969;28;19933;-69
2020/12/02 02:03:06;;;;;;;;;;;;;;;-1.67;87.23;100826.31;5011677;28;20384;-67
2020/12/02 02:05:42;;;;;;;;;;;;;;;-1.81;87.45;100823.91;5015132;28;19948;-68
2020/12/02 02:08:08;;;;;;;;;;;;;;;-1.99;88.13;100818.19;5021068;28;19925;-68
2020/12/02 02:10:37;;;;;;;;;;;;;;;-2.04;88.19;100815.88;5021596;28;20016;-68
2020/12/02 02:13:06;;;;;;;;;;;;;;;-2.09;88.88;100812.75;5003170;28;20020;-68
2020/12/02 02:15:44;;;;;;;;;;;;;;;-2.19;89.21;100816.25;5019585;28;19949;-68
2020/12/02 02:18:12;;;;;;;;;;;;;;;-2.20;89.65;100815.41;5011206;28;19996;-69
2020/12/02 02:20:40;;;;;;;;;;;;;;;-2.20;89.54;100811.88;5006883;28;19936;-69
2020/12/02 02:23:06;;;;;;;;;;;;;;;-2.26;89.45;100807.88;5018938;28;20454;-68
2020/12/02 02:25:33;;;;;;;;;;;;;;;-2.36;89.96;100801.53;5021743;28;19931;-69
2020/12/02 02:27:59;;;;;;;;;;;;;;;-2.44;90.16;100798.63;4998155;28;20354;-69
2020/12/02 02:30:25;;;;;;;;;;;;;;;-2.44;90.49;100803.97;4994364;28;20016;-69
2020/12/02 02:32:52;;;;;;;;;;;;;;;-2.47;90.42;100804.22;5022076;28;19971;-68
2020/12/02 02:35:18;;;;;;;;;;;;;;;-2.53;90.92;100807.34;5017711;28;20007;-69
2020/12/02 02:37:44;;;;;;;;;;;;;;;-2.49;90.96;100801.66;5011334;28;19926;-68
2020/12/02 02:40:11;;;;;;;;;;;;;;;-2.51;90.83;100803.59;5006547;28;19980;-69
2020/12/02 02:42:41;;;;;;;;;;;;;;;-2.53;90.91;100799.34;5002262;28;20422;-68
2020/12/02 02:45:09;;;;;;;;;;;;;;;-2.57;91.29;100811.22;5000591;28;19925;-68
2020/12/02 02:47:38;;;;;;;;;;;;;;;-2.55;91.34;100807.47;5011782;28;19925;-68
2020/12/02 02:50:07;;;;;;;;;;;;;;;-2.42;91.19;100808.19;5018683;28;19948;-68
2020/12/02 02:52:33;;;;;;;;;;;;;;;-2.41;90.67;100806.38;5008269;28;19932;-68
2020/12/02 02:54:59;;;;;;;;;;;;;;;-2.39;90.91;100801.78;5007772;28;19964;-67
2020/12/02 02:57:25;;;;;;;;;;;;;;;-2.27;90.47;100800.84;5008950;28;19936;-68
2020/12/02 02:59:51;;;;;;;;;;;;;;;-2.32;90.13;100808.34;5009276;28;20025;-68
2020/12/02 03:02:17;;;;;;;;;;;;;;;-2.18;90.29;100804.59;5008461;28;19928;-68
2020/12/02 03:04:44;;;;;;;;;;;;;;;-2.05;89.67;100803.50;5007823;28;19972;-68
2020/12/02 03:07:14;;;;;;;;;;;;;;;-1.98;89.03;100800.34;5009572;28;19937;-68
2020/12/02 03:09:40;;;;;;;;;;;;;;;-1.98;88.65;100800.34;5012656;28;20484;-68
2020/12/02 03:12:07;;;;;;;;;;;;;;;-2.11;88.44;100809.34;5011584;28;20016;-69
2020/12/02 03:14:33;;;;;;;;;;;;;;;-2.08;88.47;100811.75;5001687;28;19926;-69
2020/12/02 03:16:59;;;;;;;;;;;;;;;-2.19;88.74;100814.44;4995025;28;19964;-69
2020/12/02 03:19:27;;;;;;;;;;;;;;;-2.21;88.50;100812.84;5004696;28;19936;-69
2020/12/02 03:21:54;;;;;;;;;;;;;;;-2.25;89.24;100806.91;4996613;28;20032;-69
2020/12/02 03:24:20;;;;;;;;;;;;;;;-2.25;89.00;100814.06;5013892;28;19933;-69
2020/12/02 03:26:47;;;;;;;;;;;;;;;-2.30;88.62;100813.56;5012534;28;19929;-68
2020/12/02 03:29:14;;;;;;;;;;;;;;;-2.38;88.92;100806.13;5016134;28;20399;-67
2020/12/02 03:31:40;;;;;;;;;;;;;;;-2.40;88.93;100810.75;5010379;28;19932;-67
2020/12/02 03:34:11;;;;;;;;;;;;;;;-2.46;88.97;100812.09;5009976;28;20021;-68
2020/12/02 03:36:37;;;;;;;;;;;;;;;-2.59;89.54;100810.47;5013511;28;19931;-68
2020/12/02 03:39:04;;;;;;;;;;;;;;;-2.59;89.88;100805.13;5010793;28;19926;-69
2020/12/02 03:41:31;;;;;;;;;;;;;;;-2.55;89.79;100806.59;5014818;28;19931;-68
2020/12/02 03:43:57;;;;;;;;;;;;;;;-2.59;89.70;100811.31;5010392;28;19930;-68
2020/12/02 03:46:23;;;;;;;;;;;;;;;-2.71;89.95;100805.09;4996055;28;19929;-68
2020/12/02 03:48:49;;;;;;;;;;;;;;;-2.75;89.93;100806.28;5009522;28;19926;-68
2020/12/02 03:51:15;;;;;;;;;;;;;;;-2.71;89.94;100806.91;4997981;28;19929;-67
2020/12/02 03:53:42;;;;;;;;;;;;;;;-2.75;89.85;100808.97;5013402;28;20315;-69
2020/12/02 03:56:08;;;;;;;;;;;;;;;-2.73;89.77;100799.03;5012413;28;20020;-68
2020/12/02 03:58:34;;;;;;;;;;;;;;;-2.81;90.03;100805.94;5009887;28;20543;-68
2020/12/02 04:01:01;;;;;;;;;;;;;;;-2.74;89.71;100805.31;5010449;28;19961;-68
2020/12/02 04:03:27;;;;;;;;;;;;;;;-2.72;89.45;100802.53;5013825;28;20012;-69
2020/12/02 04:05:54;;;;;;;;;;;;;;;-2.78;89.43;100809.22;5010079;28;20539;-68
2020/12/02 04:08:20;;;;;;;;;;;;;;;-2.82;89.75;100807.75;5008936;28;19926;-68
2020/12/02 04:10:46;;;;;;;;;;;;;;;-2.87;89.86;100801.91;5010177;28;20027;-68
2020/12/02 04:13:12;;;;;;;;;;;;;;;-2.86;89.98;100802.75;4997423;28;20482;-68
2020/12/02 04:15:39;;;;;;;;;;;;;;;-2.77;89.88;100794.03;5012115;28;19937;-69
2020/12/02 04:18:05;;;;;;;;;;;;;;;-2.79;89.52;100796.84;5012622;28;20137;-68
2020/12/02 04:20:31;;;;;;;;;;;;;;;-2.87;89.62;100791.25;5010869;28;19926;-69
2020/12/02 04:22:57;;;;;;;;;;;;;;;-2.92;89.74;100789.88;5010329;28;19953;-69
2020/12/02 04:25:25;;;;;;;;;;;;;;;-2.95;89.96;100788.28;5014137;28;19925;-69
2020/12/02 04:27:52;;;;;;;;;;;;;;;-2.83;89.53;100787.38;5009725;28;20011;-68
2020/12/02 04:30:18;;;;;;;;;;;;;;;-2.98;89.93;100788.53;5008094;28;19996;-69
2020/12/02 04:32:45;;;;;;;;;;;;;;;-2.98;90.04;100783.19;5011557;28;19926;-67
2020/12/02 04:35:11;;;;;;;;;;;;;;;-2.98;90.28;100793.84;5014376;28;19972;-70
2020/12/02 04:37:37;;;;;;;;;;;;;;;-3.00;90.08;100785.13;5012805;28;19992;-68
2020/12/02 04:40:05;;;;;;;;;;;;;;;-3.07;90.26;100786.53;5011562;28;19926;-68
2020/12/02 04:42:32;;;;;;;;;;;;;;;-3.08;90.15;100777.69;4995372;28;19926;-68
2020/12/02 04:44:59;;;;;;;;;;;;;;;-3.09;90.53;100780.47;5008735;28;19968;-68
2020/12/02 04:47:32;;;;;;;;;;;;;;;-3.01;90.50;100772.75;5009763;28;19928;-68
2020/12/02 04:49:59;;;;;;;;;;;;;;;-2.98;89.99;100771.69;5008715;28;19930;-68
2020/12/02 04:52:25;;;;;;;;;;;;;;;-3.09;90.09;100770.66;5008624;28;19925;-68
2020/12/02 04:54:51;;;;;;;;;;;;;;;-3.08;90.35;100764.38;5010941;28;20036;-68
2020/12/02 04:57:18;;;;;;;;;;;;;;;-3.02;90.20;100768.38;5014370;28;20020;-69
2020/12/02 04:59:44;;;;;;;;;;;;;;;-3.10;90.35;100778.78;5011224;28;19926;-68
2020/12/02 05:02:24;;;;;;;;;;;;;;;-3.07;90.28;100775.88;4994763;28;20017;-68
2020/12/02 05:04:57;;;;;;;;;;;;;;;-3.11;90.19;100783.25;4992515;28;19925;-69
2020/12/02 05:07:28;;;;;;;;;;;;;;;-3.10;90.32;100778.78;5013207;28;19983;-68
2020/12/02 05:10:03;;;;;;;;;;;;;;;-3.01;90.07;100774.56;5009681;28;19929;-71
2020/12/02 05:12:48;;;;;;;;;;;;;;;-3.12;90.32;100778.88;4995409;28;19936;-70
2020/12/02 05:15:17;;;;;;;;;;;;;;;-3.07;90.45;100773.22;5013389;28;20330;-70
2020/12/02 05:17:44;;;;;;;;;;;;;;;-2.96;90.06;100781.25;5009656;28;19926;-69
2020/12/02 05:20:15;;;;;;;;;;;;;;;-3.06;90.12;100785.56;5010995;28;19925;-69
2020/12/02 05:22:43;;;;;;;;;;;;;;;-3.16;90.25;100784.59;5008468;28;19929;-69
2020/12/02 05:25:15;;;;;;;;;;;;;;;-3.23;90.38;100778.00;5010039;28;20449;-68
2020/12/02 05:27:42;;;;;;;;;;;;;;;-3.32;90.54;100784.00;5013126;28;19925;-68
2020/12/02 05:30:29;;;;;;;;;;;;;;;-3.30;90.75;100772.28;5025098;28;20016;-68
2020/12/02 05:33:01;;;;;;;;;;;;;;;-3.24;90.88;100776.31;4998183;28;19932;-67
2020/12/02 05:35:28;;;;;;;;;;;;;;;-3.29;90.82;100771.31;5009597;28;20027;-68
2020/12/02 05:37:54;;;;;;;;;;;;;;;-3.28;91.03;100766.84;5022669;28;19963;-69
2020/12/02 05:40:20;;;;;;;;;;;;;;;-3.35;90.88;100773.56;5015141;28;19933;-69
2020/12/02 05:42:47;;;;;;;;;;;;;;;-3.43;91.08;100782.13;4996074;28;19931;-69
2020/12/02 05:45:35;;;;;;;;;;;;;;;-3.42;91.42;100779.34;5012291;28;19925;-68
2020/12/02 05:48:01;;;;;;;;;;;;;;;-3.30;91.38;100782.09;5003940;28;20043;-69
2020/12/02 05:50:29;;;;;;;;;;;;;;;-3.35;91.35;100776.25;5015942;28;21248;-69
2020/12/02 05:53:28;;;;;;;;;;;;;;;-3.36;91.39;100772.72;5015883;28;19935;-68
2020/12/02 05:55:54;;;;;;;;;;;;;;;-3.38;91.15;100770.19;4975234;28;20067;-68
2020/12/02 05:58:30;;;;;;;;;;;;;;;-3.43;91.31;100777.66;5025345;28;20368;-68
2020/12/02 06:00:57;;;;;;;;;;;;;;;-3.47;91.43;100776.19;5010760;28;19926;-68
2020/12/02 06:03:26;;;;;;;;;;;;;;;-3.50;91.33;100775.56;5035394;28;19925;-68
2020/12/02 06:05:58;;;;;;;;;;;;;;;-3.44;91.97;100769.78;4995270;28;19925;-68
2020/12/02 06:08:31;;;;;;;;;;;;;;;-3.13;91.32;100773.69;5004636;28;19964;-68
2020/12/02 06:11:03;;;;;;;;;;;;;;;-3.04;90.55;100770.31;5016946;28;19925;-68
2020/12/02 06:13:37;;;;;;;;;;;;;;;-3.27;90.41;100774.72;4990972;28;19960;-69
2020/12/02 06:16:04;;;;;;;;;;;;;;;-3.34;90.60;100767.28;5001104;28;19965;-68
2020/12/02 06:18:39;;;;;;;;;;;;;;;-3.23;90.79;100778.00;5012899;28;19925;-69
2020/12/02 06:21:06;;;;;;;;;;;;;;;-3.10;90.32;100770.78;5017283;28;20024;-68
2020/12/02 06:23:39;;;;;;;;;;;;;;;-3.13;90.47;100771.03;5008705;28;20462;-68
2020/12/02 06:26:06;;;;;;;;;;;;;;;-2.98;90.06;100766.34;5019782;28;20360;-69
2020/12/02 06:28:32;;;;;;;;;;;;;;;-3.18;90.27;100765.19;5020317;28;19975;-68
2020/12/02 06:31:03;;;;;;;;;;;;;;;-3.09;90.37;100762.66;5018279;28;20407;-68
2020/12/02 06:33:31;;;;;;;;;;;;;;;-2.98;89.86;100758.34;5007531;28;20304;-69
2020/12/02 06:36:08;;;;;;;;;;;;;;;-3.08;89.77;100750.19;5009391;28;19933;-68
2020/12/02 06:38:34;;;;;;;;;;;;;;;-3.15;90.21;100757.81;5021002;28;19961;-69
2020/12/02 06:41:00;;;;;;;;;;;;;;;-3.20;90.23;100756.47;5002366;28;19925;-68
2020/12/02 06:43:30;;;;;;;;;;;;;;;-3.16;90.24;100755.28;5023179;28;19929;-68
2020/12/02 06:46:03;;;;;;;;;;;;;;;-3.06;90.00;100748.25;5011911;28;20048;-69
2020/12/02 06:48:34;;;;;;;;;;;;;;;-2.92;89.49;100750.75;5017219;28;20023;-68
2020/12/02 06:51:01;;;;;;;;;;;;;;;-2.99;88.93;100749.50;5024275;28;19971;-67
2020/12/02 06:53:27;;;;;;;;;;;;;;;-3.02;89.15;100747.06;5024847;28;19925;-68
2020/12/02 06:56:00;;;;;;;;;;;;;;;-3.09;89.05;100746.66;5002177;28;20310;-68
2020/12/02 06:58:28;;;;;;;;;;;;;;;-3.14;89.57;100742.69;5013915;28;19931;-68
2020/12/02 07:00:56;;;;;;;;;;;;;;;-3.23;89.91;100743.38;5025178;28;19932;-69
2020/12/02 07:03:25;;;;;;;;;;;;;;;-3.03;90.07;100748.03;5015780;28;19925;-68
2020/12/02 07:05:52;;;;;;;;;;;;;;;-2.91;89.27;100744.44;5021733;28;20413;-69
2020/12/02 07:08:31;;;;;;;;;;;;;;;-2.81;88.83;100739.25;4999208;28;20374;-68
2020/12/02 07:11:05;;;;;;;;;;;;;;;-2.60;87.65;100744.75;5022439;28;20323;-68
2020/12/02 07:13:32;;;;;;;;;;;;;;;-2.34;87.28;100743.56;5007351;28;19926;-68
2020/12/02 07:15:59;;;;;;;;;;;;;;;-2.18;85.98;100744.06;5016646;28;20373;-69
2020/12/02 07:18:25;;;;;;;;;;;;;;;-1.87;84.75;100742.47;5016606;28;19932;-68
2020/12/02 07:20:59;;;;;;;;;;;;;;;-1.77;84.17;100743.41;5006656;28;19925;-67
2020/12/02 07:23:25;;;;;;;;;;;;;;;-1.41;82.32;100733.38;5014443;28;19925;-68
2020/12/02 07:25:52;;;;;;;;;;;;;;;-0.79;79.49;100733.44;4997821;28;19925;-69
2020/12/02 07:28:20;;;;;;;;;;;;;;;-0.36;77.47;100729.75;5015993;28;20289;-69
2020/12/02 07:30:47;;;;;;;;;;;;;;;-0.08;76.37;100723.69;4989518;28;20032;-68
2020/12/02 07:33:21;;;;;;;;;;;;;;;0.59;73.36;100714.94;5021222;28;19926;-68
2020/12/02 07:36:01;;;;;;;;;;;;;;;0.97;71.93;100715.94;5029471;28;20279;-69
2020/12/02 07:38:27;;;;;;;;;;;;;;;1.50;69.31;100710.06;5010043;28;19969;-69
2020/12/02 07:40:54;;;;;;;;;;;;;;;2.13;66.14;100705.69;5014743;28;19951;-68
2020/12/02 07:43:27;;;;;;;;;;;;;;;2.40;65.30;100702.16;4999928;28;19929;-68
2020/12/02 07:45:54;;;;;;;;;;;;;;;2.84;64.47;100692.31;5014049;28;20391;-69
2020/12/02 07:48:24;;;;;;;;;;;;;;;3.27;62.70;100696.88;4997285;28;20016;-69
2020/12/02 07:51:04;;;;;;;;;;;;;;;3.14;62.80;100691.06;5013967;28;19925;-69
2020/12/02 07:53:30;;;;;;;;;;;;;;;2.90;63.87;100691.72;4995174;28;19979;-70
2020/12/02 07:55:56;;;;;;;;;;;;;;;3.57;61.47;100686.66;5014155;28;19968;-69
2020/12/02 07:58:29;;;;;;;;;;;;;;;4.14;59.37;100686.94;4997537;28;19929;-70
2020/12/02 08:00:56;;;;;;;;;;;;;;;4.83;56.10;100681.19;5014291;28;19925;-70
2020/12/02 08:03:27;;;;;;;;;;;;;;;5.06;54.09;100692.16;5016053;28;20012;-69
2020/12/02 08:05:54;;;;;;;;;;;;;;;4.87;54.92;100673.56;5000576;28;20314;-69
2020/12/02 08:08:21;;;;;;;;;;;;;;;4.78;54.96;100680.84;5010428;28;19949;-69
2020/12/02 08:10:48;;;;;;;;;;;;;;;5.29;53.24;100681.50;5019353;28;19932;-69
2020/12/02 08:13:18;;;;;;;;;;;;;;;5.84;51.84;100681.59;5012233;28;19925;-69
2020/12/02 08:15:45;;;;;;;;;;;;;;;5.16;53.36;100676.66;5023953;28;19925;-69
2020/12/02 08:18:14;;;;;;;;;;;;;;;5.30;53.39;100678.63;4982690;28;19930;-69
2020/12/02 08:20:41;;;;;;;;;;;;;;;5.90;51.39;100677.34;4996431;28;19932;-70
2020/12/02 08:23:08;;;;;;;;;;;;;;;5.57;51.75;100676.56;5024940;28;20451;-70
2020/12/02 08:25:44;;;;;;;;;;;;;;;6.80;48.85;100680.44;5024832;28;19957;-70
2020/12/02 08:28:10;;;;;;;;;;;;;;;5.97;49.76;100687.28;5042389;23;20780;-73
2020/12/02 08:30:38;;;;;;;;;;;;;;;6.61;47.94;100679.88;5046145;28;19997;-73
2020/12/02 08:33:10;;;;;;;;;;;;;;;6.78;48.92;100675.19;5025127;28;20287;-73
2020/12/02 08:35:38;;;;;;;;;;;;;;;6.89;48.32;100682.06;5013782;28;19931;-73
2020/12/02 08:38:06;;;;;;;;;;;;;;;7.87;44.41;100671.13;5022597;28;19925;-73
2020/12/02 08:40:46;;;;;;;;;;;;;;;7.68;45.23;100667.09;5011232;28;20272;-72
2020/12/02 08:43:16;;;;;;;;;;;;;;;7.34;45.61;100663.03;5010769;28;20353;-71
2020/12/02 08:45:55;;;;;;;;;;;;;;;7.13;46.34;100667.47;5026973;28;20395;-73
2020/12/02 08:48:22;;;;;;;;;;;;;;;7.71;44.42;100666.72;4993564;28;19968;-73
2020/12/02 08:50:49;;;;;;;;;;;;;;;8.21;42.91;100654.25;5003521;28;20403;-72
2020/12/02 08:53:20;;;;;;;;;;;;;;;7.92;44.03;100650.56;5026407;28;20035;-72
2020/12/02 08:55:46;;;;;;;;;;;;;;;7.67;44.60;100654.56;4981430;28;19932;-72
2020/12/02 08:58:13;;;;;;;;;;;;;;;8.10;43.49;100654.72;5011063;28;20388;-72
2020/12/02 09:00:39;;;;;;;;;;;;;;;8.34;43.04;100651.72;4978244;28;19929;-73
2020/12/02 09:03:05;;;;;;;;;;;;;;;8.35;42.43;100643.38;4987583;28;20020;-72
2020/12/02 09:05:33;;;;;;;;;;;;;;;8.25;43.17;100655.56;4977946;28;20020;-73
2020/12/02 09:07:59;;;;;;;;;;;;;;;9.53;40.26;100641.97;5011009;28;20394;-72
2020/12/02 09:10:25;;;;;;;;;;;;;;;9.92;39.26;100639.50;4993968;28;20019;-72
2020/12/02 09:12:51;;;;;;;;;;;;;;;10.54;37.46;100634.97;5011807;28;19929;-72
2020/12/02 09:15:18;;;;;;;;;;;;;;;9.48;38.59;100642.56;5006907;28;20346;-72
2020/12/02 09:17:44;;;;;;;;;;;;;;;9.58;38.98;100637.63;5007114;28;19925;-72
2020/12/02 09:20:10;;;;;;;;;;;;;;;9.23;39.68;100642.19;4993664;28;19926;-72
2020/12/02 09:22:36;;;;;;;;;;;;;;;9.15;40.38;100636.03;5011240;28;20370;-73
2020/12/02 09:25:03;;;;;;;;;;;;;;;9.79;38.86;100631.25;5026198;28;19926;-72
2020/12/02 09:27:29;;;;;;;;;;;;;;;9.90;38.52;100627.13;4991635;28;19956;-73
2020/12/02 09:29:55;;;;;;;;;;;;;;;10.19;37.70;100626.00;5007366;28;19995;-72
2020/12/02 09:32:22;;;;;;;;;;;;;;;9.92;38.77;100623.16;4993403;28;20285;-72
2020/12/02 09:34:48;;;;;;;;;;;;;;;9.33;39.27;100630.97;5017913;28;19932;-73
2020/12/02 09:37:14;;;;;;;;;;;;;;;9.40;39.20;100621.78;5026035;28;20442;-72
2020/12/02 09:39:41;;;;;;;;;;;;;;;10.50;37.52;100615.44;4993390;28;20387;-73
2020/12/02 09:42:25;;;;;;;;;;;;;;;9.47;38.23;100618.28;5002808;28;19942;-72
2020/12/02 09:45:06;;;;;;;;;;;;;;;9.68;38.65;100612.78;5025722;28;20366;-72
2020/12/02 09:47:45;;;;;;;;;;;;;;;9.33;39.28;100612.78;5019393;28;19931;-72
2020/12/02 09:50:11;;;;;;;;;;;;;;;10.73;37.30;100604.19;5004078;28;20020;-72
2020/12/02 09:52:39;;;;;;;;;;;;;;;11.39;35.22;100591.41;5006549;28;19930;-73
2020/12/02 09:55:14;;;;;;;;;;;;;;;11.18;35.39;100588.88;5026270;28;19933;-73
2020/12/02 09:57:40;;;;;;;;;;;;;;;9.79;38.34;100595.88;4996911;28;19929;-71
2020/12/02 10:00:07;;;;;;;;;;;;;;;10.15;37.17;100592.88;5003764;28;20020;-72
2020/12/02 10:02:36;;;;;;;;;;;;;;;10.25;36.73;100590.66;5009907;28;19925;-72
2020/12/02 10:05:12;;;;;;;;;;;;;;;10.08;37.33;100584.69;5010552;28;19980;-72
2020/12/02 10:07:57;;;;;;;;;;;;;;;9.89;38.37;100577.28;5010520;28;19929;-72
2020/12/02 10:10:42;;;;;;;;;;;;;;;10.61;36.16;100571.25;5025496;28;19988;-72
2020/12/02 10:13:27;;;;;;;;;;;;;;;10.55;36.04;100565.78;4993360;28;20335;-71
2020/12/02 10:15:53;;;;;;;;;;;;;;;10.21;36.72;100564.03;5010271;28;19929;-72
2020/12/02 10:18:19;;;;;;;;;;;;;;;10.23;37.11;100562.78;5013397;28;19932;-72
2020/12/02 10:20:47;;;;;;;;;;;;;;;10.50;36.85;100552.78;5014444;28;19925;-72
2020/12/02 10:23:13;;;;;;;;;;;;;;;10.98;35.53;100547.16;5013373;28;19980;-72
2020/12/02 10:25:45;;;;;;;;;;;;;;;11.10;34.76;100548.16;4996986;28;19925;-72
2020/12/02 10:28:17;;;;;;;;;;;;;;;10.66;35.82;100546.09;5012686;28;19925;-72
2020/12/02 10:30:59;;;;;;;;;;;;;;;10.32;36.32;100545.22;5028220;28;20017;-72
2020/12/02 10:33:27;;;;;;;;;;;;;;;10.81;35.80;100532.25;5012879;28;19996;-72
2020/12/02 10:35:56;;;;;;;;;;;;;;;11.26;34.75;100531.38;5029571;28;19972;-72
2020/12/02 10:38:25;;;;;;;;;;;;;;;10.75;35.57;100521.13;5015158;28;20313;-72
2020/12/02 10:40:54;;;;;;;;;;;;;;;10.42;37.08;100523.00;5006205;28;20016;-71
2020/12/02 10:43:22;;;;;;;;;;;;;;;11.05;34.94;100523.44;5029203;28;19960;-72
2020/12/02 10:45:49;;;;;;;;;;;;;;;10.20;36.81;100514.16;4980053;28;19933;-72
2020/12/02 10:48:36;;;;;;;;;;;;;;;10.12;36.84;100508.03;4995132;28;20186;-72
2020/12/02 10:51:02;;;;;;;;;;;;;;;10.94;35.78;100505.81;5000103;28;20028;-72
2020/12/02 10:53:28;;;;;;;;;;;;;;;10.59;35.76;100507.94;4995301;28;19925;-73
2020/12/02 10:55:55;;;;;;;;;;;;;;;11.03;34.78;100490.94;5001727;28;20320;-72
2020/12/02 10:58:31;;;;;;;;;;;;;;;11.63;34.21;100482.56;5010736;28;20480;-72
2020/12/02 11:00:59;;;;;;;;;;;;;;;11.45;34.80;100488.69;5025138;28;19925;-72
2020/12/02 11:03:27;;;;;;;;;;;;;;;11.38;34.09;100480.56;5016662;28;20357;-72
2020/12/02 11:06:12;;;;;;;;;;;;;;;10.55;35.61;100482.16;4996394;28;19929;-72
2020/12/02 11:08:57;;;;;;;;;;;;;;;10.93;35.44;100478.78;5012770;28;19925;-72
2020/12/02 11:11:23;;;;;;;;;;;;;;;11.02;35.39;100470.16;4996385;28;20032;-72
2020/12/02 11:14:02;;;;;;;;;;;;;;;10.53;36.20;100472.50;5013693;28;19976;-72
2020/12/02 11:16:31;;;;;;;;;;;;;;;11.03;34.85;100460.94;5016276;28;20344;-72
2020/12/02 11:19:02;;;;;;;;;;;;;;;11.03;34.53;100460.94;4995920;28;19988;-72
2020/12/02 11:21:32;;;;;;;;;;;;;;;10.16;36.54;100460.28;5017357;28;19961;-72
2020/12/02 11:24:05;;;;;;;;;;;;;;;10.23;36.59;100453.84;4996038;28;20449;-72
2020/12/02 11:26:33;;;;;;;;;;;;;;;11.02;35.39;100447.50;4991740;28;20036;-72
2020/12/02 11:28:59;;;;;;;;;;;;;;;10.58;35.66;100453.63;5006485;28;19926;-72
2020/12/02 11:31:25;;;;;;;;;;;;;;;10.29;36.41;100446.72;4982777;28;19957;-72
2020/12/02 11:33:53;;;;;;;;;;;;;;;9.57;37.41;100450.94;4995966;28;20296;-71
2020/12/02 11:36:24;;;;;;;;;;;;;;;9.94;37.50;100448.75;4980202;28;19930;-71
2020/12/02 11:39:07;;;;;;;;;;;;;;;9.51;38.52;100445.47;5011934;28;19926;-71
2020/12/02 11:41:37;;;;;;;;;;;;;;;9.38;38.46;100433.47;5027923;28;19976;-71
2020/12/02 11:44:13;;;;;;;;;;;;;;;9.62;37.85;100434.00;4995546;28;19975;-71
2020/12/02 11:46:40;;;;;;;;;;;;;;;9.52;37.75;100433.53;4979562;28;20395;-71
2020/12/02 11:49:09;;;;;;;;;;;;;;;9.48;37.98;100433.09;5027745;28;19925;-71
2020/12/02 11:51:37;;;;;;;;;;;;;;;10.45;36.29;100421.78;4995359;28;19930;-71
2020/12/02 11:54:07;;;;;;;;;;;;;;;10.08;37.24;100409.56;4995443;28;19975;-71
2020/12/02 11:56:36;;;;;;;;;;;;;;;11.26;35.02;100411.34;4995466;28;20032;-71
2020/12/02 11:59:05;;;;;;;;;;;;;;;10.98;35.29;100413.53;5027290;28;20015;-71
2020/12/02 12:01:31;;;;;;;;;;;;;;;10.81;35.53;100401.41;4993826;28;19936;-71
2020/12/02 12:03:59;;;;;;;;;;;;;;;10.60;36.30;100408.78;5012115;28;19933;-70
2020/12/02 12:06:26;;;;;;;;;;;;;;;10.63;36.00;100399.34;5008218;28;20032;-71
2020/12/02 12:09:04;;;;;;;;;;;;;;;11.02;35.79;100399.25;5009891;28;20004;-71
2020/12/02 12:11:32;;;;;;;;;;;;;;;11.63;34.19;100401.50;5008766;28;19932;-71
2020/12/02 12:14:13;;;;;;;;;;;;;;;11.54;34.53;100393.78;4994496;28;19976;-71
2020/12/02 12:16:51;;;;;;;;;;;;;;;11.41;35.13;100391.97;5013362;28;19929;-71
2020/12/02 12:19:37;;;;;;;;;;;;;;;10.04;36.86;100384.69;5030949;28;20409;-71
2020/12/02 12:22:23;;;;;;;;;;;;;;;11.05;35.24;100387.09;5027102;28;19932;-71
2020/12/02 12:24:49;;;;;;;;;;;;;;;10.72;35.85;100384.44;5027867;28;20028;-71
2020/12/02 12:27:17;;;;;;;;;;;;;;;10.46;36.13;100368.97;5008801;28;19940;-71
2020/12/02 12:29:44;;;;;;;;;;;;;;;10.54;36.51;100367.91;4994595;28;19925;-71
2020/12/02 12:32:12;;;;;;;;;;;;;;;10.86;35.30;100357.97;5008216;28;20366;-71
2020/12/02 12:34:46;;;;;;;;;;;;;;;10.52;35.81;100359.09;5009688;28;19929;-71
2020/12/02 12:37:14;;;;;;;;;;;;;;;10.51;36.23;100361.00;5025235;28;19931;-70
2020/12/02 12:39:41;;;;;;;;;;;;;;;9.79;37.51;100348.19;4995926;28;19972;-70
2020/12/02 12:42:10;;;;;;;;;;;;;;;9.90;36.66;100350.31;4994255;28;19953;-70
2020/12/02 12:44:37;;;;;;;;;;;;;;;7.71;40.81;100361.03;4992846;28;20405;-71
2020/12/02 12:47:11;;;;;;;;;;;;;;;6.45;45.27;100352.44;5026754;28;19988;-71
2020/12/02 12:49:42;;;;;;;;;;;;;;;6.53;44.75;100352.34;4994855;28;19971;-71